createdAt,value
2022-10-11T00:00:06.068Z,9.20
2022-10-11T00:05:29.150Z,10.00
2022-10-11T00:10:34.922Z,11.50
2022-10-11T00:15:39.891Z,12.10
2022-10-11T00:20:42.776Z,9.00
2022-10-11T00:25:45.574Z,12.80
2022-10-11T00:30:49.098Z,14.20
2022-10-11T00:35:52.066Z,9.00
2022-10-11T00:40:55.112Z,11.80
2022-10-11T00:45:58.017Z,9.00
2022-10-11T00:51:07.082Z,8.30
2022-10-11T00:56:17.445Z,10.80
2022-10-11T01:01:20.620Z,13.50
2022-10-11T01:06:23.659Z,8.20
2022-10-11T01:11:29.227Z,12.00
2022-10-11T01:17:07.054Z,10.50
2022-10-11T01:22:35.566Z,11.80
2022-10-11T01:27:58.835Z,11.80
2022-10-11T01:33:21.460Z,10.30
2022-10-11T01:38:35.163Z,11.50
2022-10-11T01:43:40.012Z,11.50
2022-10-11T01:48:55.205Z,13.90
2022-10-11T01:55:08.260Z,13.10
2022-10-11T02:00:23.142Z,12.10
2022-10-11T02:05:35.724Z,11.70
2022-10-11T02:10:50.144Z,13.80
2022-10-11T02:15:56.322Z,15.10
2022-10-11T02:21:02.300Z,13.20
2022-10-11T02:26:07.415Z,13.90
2022-10-11T02:31:12.636Z,12.20
2022-10-11T02:36:25.358Z,14.90
2022-10-11T02:41:33.150Z,16.40
2022-10-11T02:46:37.609Z,13.30
2022-10-11T02:51:40.923Z,14.60
2022-10-11T02:56:43.824Z,15.40
2022-10-11T03:01:46.795Z,15.90
2022-10-11T03:06:49.632Z,19.10
2022-10-11T03:11:52.743Z,19.60
2022-10-11T03:16:55.776Z,18.00
2022-10-11T03:22:01.115Z,17.20
2022-10-11T03:27:04.013Z,14.70
2022-10-11T03:32:06.824Z,15.30
2022-10-11T03:37:10.336Z,14.60
2022-10-11T03:42:14.040Z,11.90
2022-10-11T03:47:17.370Z,12.40
2022-10-11T03:52:20.480Z,15.20
2022-10-11T03:57:24.001Z,15.10
2022-10-11T04:02:27.108Z,10.60
2022-10-11T04:07:29.908Z,17.60
2022-10-11T04:12:33.190Z,16.50
2022-10-11T04:17:35.921Z,17.50
2022-10-11T04:22:38.926Z,18.00
2022-10-11T04:27:42.140Z,26.80
2022-10-11T04:32:45.357Z,25.70
2022-10-11T04:37:48.258Z,33.90
2022-10-11T04:42:53.413Z,34.00
2022-10-11T04:47:56.318Z,28.20
2022-10-11T04:52:59.221Z,36.60
2022-10-11T04:58:02.491Z,34.70
2022-10-11T05:03:05.335Z,27.50
2022-10-11T05:08:08.445Z,25.90
2022-10-11T05:13:11.246Z,25.90
2022-10-11T05:18:14.047Z,29.50
2022-10-11T05:23:16.951Z,19.60
2022-10-11T05:28:19.802Z,19.40
2022-10-11T05:33:23.580Z,17.60
2022-10-11T05:38:26.940Z,19.40
2022-10-11T05:43:30.420Z,22.80
2022-10-11T05:48:33.812Z,21.20
2022-10-11T05:53:38.170Z,21.20
2022-10-11T05:58:41.067Z,20.10
2022-10-11T06:03:44.177Z,25.70
2022-10-11T06:08:47.909Z,36.20
2022-10-11T06:13:54.623Z,35.70
2022-10-11T06:18:58.202Z,28.90
2022-10-11T06:24:02.145Z,24.60
2022-10-11T06:29:05.668Z,23.60
2022-10-11T06:34:08.977Z,20.10
2022-10-11T06:39:12.196Z,14.60
2022-10-11T06:44:15.351Z,17.20
2022-10-11T06:49:23.061Z,14.00
2022-10-11T06:54:26.968Z,13.70
2022-10-11T06:59:29.746Z,13.20
2022-10-11T07:04:34.187Z,12.00
2022-10-11T07:09:37.042Z,8.90
2022-10-11T07:14:40.011Z,8.10
2022-10-11T07:19:42.798Z,8.00
2022-10-11T07:24:45.802Z,7.90
2022-10-11T07:29:48.608Z,6.70
2022-10-11T07:34:51.406Z,6.50
2022-10-11T07:39:54.719Z,7.80
2022-10-11T07:44:57.523Z,7.90
2022-10-11T07:50:00.426Z,5.90
2022-10-11T07:55:03.338Z,6.60
2022-10-11T08:00:07.175Z,5.70
2022-10-11T08:05:09.933Z,5.30
2022-10-11T08:10:12.770Z,4.60
2022-10-11T08:15:16.581Z,5.60
2022-10-11T08:20:19.491Z,6.50
2022-10-11T08:25:22.545Z,6.90
2022-10-11T08:30:25.404Z,7.20
2022-10-11T08:35:28.716Z,5.40
2022-10-11T08:40:35.314Z,8.90
2022-10-11T08:45:53.472Z,5.80
2022-10-11T08:50:57.680Z,5.20
2022-10-11T08:56:01.472Z,6.30
2022-10-11T09:01:07.152Z,4.20
2022-10-11T09:06:25.464Z,9.30
2022-10-11T09:11:47.619Z,5.30
2022-10-11T09:16:55.846Z,4.80
2022-10-11T09:22:10.937Z,5.80
2022-10-11T09:27:25.894Z,4.40
2022-10-11T09:32:42.720Z,4.30
2022-10-11T09:38:06.248Z,8.70
2022-10-11T09:43:09.629Z,5.80
2022-10-11T09:48:30.792Z,6.20
2022-10-11T09:54:05.439Z,7.90
2022-10-11T09:59:31.386Z,7.60
2022-10-11T10:04:34.499Z,6.70
2022-10-11T10:09:38.022Z,11.30
2022-10-11T10:14:41.508Z,5.70
2022-10-11T10:19:51.959Z,5.00
2022-10-11T10:24:57.888Z,11.50
2022-10-11T10:30:09.924Z,7.00
2022-10-11T10:35:24.660Z,11.90
2022-10-11T10:40:39.473Z,11.80
2022-10-11T10:46:20.580Z,17.10
2022-10-11T10:51:58.448Z,9.70
2022-10-11T10:57:05.666Z,5.00
2022-10-11T11:07:50.629Z,8.40
2022-10-11T11:13:14.730Z,11.90
2022-10-11T11:18:36.583Z,11.90
2022-10-11T11:23:48.492Z,10.40
2022-10-11T11:29:00.821Z,6.70
2022-10-11T11:34:19.185Z,6.80
2022-10-11T11:39:39.918Z,4.70
2022-10-11T11:44:51.021Z,5.40
2022-10-11T11:50:19.608Z,6.10
2022-10-11T11:55:42.281Z,4.50
2022-10-11T12:01:03.935Z,4.10
2022-10-11T12:06:24.105Z,6.20
2022-10-11T12:11:34.641Z,5.40
2022-10-11T12:17:09.059Z,6.60
2022-10-11T12:22:36.892Z,4.20
2022-10-11T12:27:46.406Z,5.40
2022-10-11T12:32:51.405Z,6.10
2022-10-11T12:38:14.648Z,6.00
2022-10-11T12:43:55.741Z,10.40
2022-10-11T12:49:04.274Z,6.10
2022-10-11T12:54:28.998Z,4.30
2022-10-11T12:59:39.168Z,6.50
2022-10-11T13:04:42.177Z,6.60
2022-10-11T13:09:48.984Z,9.00
2022-10-11T13:15:04.579Z,6.50
2022-10-11T13:20:17.880Z,5.50
2022-10-11T13:25:28.113Z,4.00
2022-10-11T13:30:34.529Z,9.80
2022-10-11T13:35:38.873Z,8.50
2022-10-11T13:40:42.273Z,8.00
2022-10-11T13:45:45.250Z,3.00
2022-10-11T13:51:08.626Z,5.00
2022-10-11T13:56:12.762Z,6.10
2022-10-11T14:01:21.186Z,8.00
2022-10-11T14:06:25.679Z,7.50
2022-10-11T14:11:35.099Z,5.60
2022-10-11T14:16:38.354Z,5.00
2022-10-11T14:21:47.254Z,5.10
2022-10-11T14:26:53.226Z,9.20
2022-10-11T14:32:03.917Z,4.70
2022-10-11T14:37:06.946Z,8.30
2022-10-11T14:42:12.483Z,7.80
2022-10-11T14:47:17.030Z,7.30
2022-10-11T14:52:19.831Z,4.40
2022-10-11T14:57:22.737Z,6.90
2022-10-11T15:02:25.538Z,7.60
2022-10-11T15:07:28.957Z,4.10
2022-10-11T15:12:32.061Z,4.40
2022-10-11T15:17:34.982Z,4.10
2022-10-11T15:22:37.769Z,6.50
2022-10-11T15:27:42.515Z,5.10
2022-10-11T15:32:46.043Z,4.90
2022-10-11T15:37:52.936Z,8.00
2022-10-11T15:42:56.046Z,4.40
2022-10-11T15:47:59.839Z,7.60
2022-10-11T15:53:08.199Z,7.70
2022-10-11T15:58:24.722Z,8.30
2022-10-11T16:03:30.086Z,5.60
2022-10-11T16:08:34.523Z,6.60
2022-10-11T16:13:37.734Z,6.20
2022-10-11T16:18:40.946Z,5.60
2022-10-11T16:23:43.877Z,7.10
2022-10-11T16:28:48.285Z,10.50
2022-10-11T16:33:53.142Z,12.90
2022-10-11T16:38:55.945Z,11.90
2022-10-11T16:43:58.786Z,15.30
2022-10-11T16:49:01.857Z,10.50
2022-10-11T16:54:04.882Z,14.30
2022-10-11T16:59:08.493Z,13.40
2022-10-11T17:04:11.693Z,10.10
2022-10-11T17:09:14.841Z,13.00
2022-10-11T17:14:18.320Z,45.30
2022-10-11T17:19:21.120Z,54.90
2022-10-11T17:24:24.640Z,53.10
2022-10-11T17:29:27.448Z,54.40
2022-10-11T17:34:30.238Z,47.50
2022-10-11T17:39:33.155Z,46.40
2022-10-11T17:44:36.563Z,49.70
2022-10-11T17:49:39.469Z,40.50
2022-10-11T17:54:42.270Z,42.20
2022-10-11T17:59:45.217Z,53.50
2022-10-11T18:04:48.183Z,73.70
2022-10-11T18:09:51.053Z,66.40
2022-10-11T18:14:53.988Z,75.60
2022-10-11T18:19:56.792Z,60.60
2022-10-11T18:24:59.693Z,77.30
2022-10-11T18:30:02.608Z,74.70
2022-10-11T18:35:06.411Z,43.00
2022-10-11T18:40:10.226Z,38.40
2022-10-11T18:45:13.051Z,26.30
2022-10-11T18:50:15.954Z,38.30
2022-10-11T18:55:19.709Z,52.60
2022-10-11T19:00:40.174Z,47.40
2022-10-11T19:05:43.920Z,33.80
2022-10-11T19:10:46.720Z,22.80
2022-10-11T19:15:49.481Z,22.20
2022-10-11T19:20:53.118Z,17.40
2022-10-11T19:25:58.709Z,19.00
2022-10-11T19:31:07.804Z,15.30
2022-10-11T19:36:14.138Z,14.70
2022-10-11T19:41:19.403Z,11.40
2022-10-11T19:46:44.376Z,13.70
2022-10-11T19:51:45.692Z,13.50
2022-10-11T19:56:49.010Z,12.10
2022-10-11T20:01:53.329Z,13.40
2022-10-11T20:06:56.670Z,15.90
2022-10-11T20:11:59.562Z,13.30
2022-10-11T20:17:02.472Z,17.30
2022-10-11T20:22:05.207Z,17.70
2022-10-11T20:27:08.068Z,19.20
2022-10-11T20:32:11.223Z,15.50
2022-10-11T20:37:14.082Z,17.60
2022-10-11T20:42:16.885Z,15.40
2022-10-11T20:47:19.693Z,15.40
2022-10-11T20:52:22.692Z,14.90
2022-10-11T20:57:25.497Z,13.80
2022-10-11T21:02:28.807Z,19.50
2022-10-11T21:07:32.162Z,15.90
2022-10-11T21:12:35.729Z,14.40
2022-10-11T21:17:39.362Z,15.20
2022-10-11T21:22:42.168Z,14.90
2022-10-11T21:27:44.972Z,13.60
2022-10-11T21:32:47.975Z,15.90
2022-10-11T21:37:50.980Z,16.00
2022-10-11T21:42:53.800Z,16.10
2022-10-11T21:47:57.401Z,16.10
2022-10-11T21:53:00.927Z,16.10
2022-10-11T21:58:03.722Z,15.60
2022-10-11T22:03:06.526Z,16.20
2022-10-11T22:08:09.332Z,12.60
2022-10-11T22:13:12.335Z,15.30
2022-10-11T22:18:15.733Z,15.50
2022-10-11T22:23:19.474Z,12.10
2022-10-11T22:28:22.431Z,13.20
2022-10-11T22:33:25.491Z,13.00
2022-10-11T22:38:28.908Z,15.00
2022-10-11T22:43:32.426Z,11.30
2022-10-11T22:48:35.943Z,14.20
2022-10-11T22:53:39.055Z,17.10
2022-10-11T22:58:41.952Z,14.70
2022-10-11T23:03:49.441Z,16.40
2022-10-11T23:08:52.474Z,16.40
2022-10-11T23:13:55.274Z,13.20
2022-10-11T23:18:58.175Z,12.10
2022-10-11T23:24:01.186Z,12.20
2022-10-11T23:29:04.030Z,12.50
2022-10-11T23:34:06.787Z,13.50
2022-10-11T23:39:11.151Z,11.00
2022-10-11T23:44:14.130Z,14.60
2022-10-11T23:49:16.936Z,12.80
2022-10-11T23:54:19.735Z,12.50
2022-10-11T23:59:22.537Z,16.20
